Leroy, Alabama
Current Conditions -  °F | °C
As of 11:53 PM on Tuesday 27 Jan 2015 (Local Time) from KGZH Reporting Station
Clear Clear  
Wind Chill: 38°   Ceiling: Unl
Heat Index: 38°   Visibility: 10mi
Dew Point: 35°   Wind: 0mph
Humidity: 89%   Direction: NA
Pressure: 30.16"   Gusts: NA
Location:  31.47°N, 87.94°W
Report Text: KGZH 280553Z AUTO 00000KT 10SM CLR 03/02 A3016 RMK AO2 SLP213 T00330017 10133 20033 401891006 52010
Loading
Personal Weather Stations






























Interactive Weather Map New forecast layout! Learn more

10-Day Weather Forecast

Advertisements
Track Severe Weather on mobile